Palessa — V2IA7 — position and weather

sailwx.info

Track history (hours):
 
Tides and Currents Weather Stations Pressure Air Temp Water Temp Dewpoint Dewpoint Depression Visibility Wind Speed Wind Dir Waves Ship Positions

Palessa

Last reported at 2014-Jul-30 17:10 UTC. Time now 2014-Aug-02 04:38 UTC.
Position N 26°37' W 079°23'.

Length 118 m; draft 5.2 m.

Type: Cargo ship. MMSI: 304255000.

Date/timePositionNaut miles runAvg speedWind from/ knotsBaromVisibWave heightAir tempDewpointWater temp
2014-Jul-30 17:10N 26°37' W 079°23'1314.9
2014-Jul-30 16:19N 26°25' W 079°24'1114.9
2014-Jul-30 15:33N 26°13' W 079°26'1514.8
2014-Jul-30 14:33N 25°58' W 079°27'1514.8
2014-Jul-30 13:33N 25°44' W 079°29'  
2014-Jul-27 05:33N 29°21' W 094°46'1212.5
2014-Jul-27 04:33N 29°31' W 094°53'1111.0
2014-Jul-27 03:33N 29°41' W 094°59'7 7.4
2014-Jul-27 02:33N 29°45' W 095°06'1 0.9
2014-Jul-27 01:31N 29°44' W 095°07'0 0.0
2014-Jul-27 00:28N 29°44' W 095°07'0 0.0
2014-Jul-26 23:31N 29°44' W 095°07'0 0.0
2014-Jul-26 22:31N 29°44' W 095°07'0 0.0
2014-Jul-26 21:28N 29°44' W 095°07'0 0.0
2014-Jul-26 20:28N 29°44' W 095°07'0 0.0
2014-Jul-26 19:31N 29°44' W 095°07'0 0.0
2014-Jul-26 18:31N 29°44' W 095°07'0 0.0
2014-Jul-26 17:31N 29°44' W 095°07'0 0.0
2014-Jul-26 16:31N 29°44' W 095°07'0 0.0
2014-Jul-26 15:31N 29°44' W 095°07'0 0.0
2014-Jul-26 14:31N 29°44' W 095°07'0 0.0
2014-Jul-26 13:31N 29°44' W 095°07'0 0.0
2014-Jul-26 12:31N 29°44' W 095°07'0 0.0
2014-Jul-26 11:28N 29°44' W 095°07'0 0.0
2014-Jul-26 10:31N 29°44' W 095°07'0 0.0
2014-Jul-26 09:28N 29°44' W 095°07'0 0.0
2014-Jul-26 08:31N 29°44' W 095°07'0 0.0
2014-Jul-26 07:31N 29°44' W 095°07'0 0.0
2014-Jul-26 06:31N 29°44' W 095°07'0 0.0
2014-Jul-26 05:31N 29°44' W 095°07'0 0.0
2014-Jul-26 04:32N 29°44' W 095°07'0 0.0
2014-Jul-26 03:32N 29°44' W 095°07'0 0.0
2014-Jul-26 02:32N 29°44' W 095°07'0 0.0
2014-Jul-26 01:32N 29°44' W 095°07'0 0.0
2014-Jul-26 00:32N 29°44' W 095°07'0 0.0
2014-Jul-25 23:32N 29°44' W 095°07'0 0.0
2014-Jul-25 22:32N 29°44' W 095°07'0 0.0
2014-Jul-25 21:32N 29°44' W 095°07'0 0.0
2014-Jul-25 20:32N 29°44' W 095°07'0 0.0
2014-Jul-25 19:26N 29°44' W 095°07'0 0.0
2014-Jul-25 18:32N 29°44' W 095°07'0 0.0
2014-Jul-25 17:32N 29°44' W 095°07'0 0.0
2014-Jul-25 16:32N 29°44' W 095°07'0 0.0
2014-Jul-25 15:32N 29°44' W 095°07'1 0.7
2014-Jul-25 14:34N 29°45' W 095°06'5 5.1
2014-Jul-25 13:34N 29°42' W 095°01'1212.3
2014-Jul-25 12:33N 29°32' W 094°54'1313.4
2014-Jul-25 11:33N 29°21' W 094°45'  
Track history (hours):
 
Tides and Currents Weather Stations Pressure Air Temp Water Temp Dewpoint Dewpoint Depression Visibility Wind Speed Wind Dir Waves Ship Positions

Palessa

Last reported at 2014-Jul-30 17:10 UTC. Time now 2014-Aug-02 04:38 UTC.
Position N 26°37' W 079°23'.

Length 118 m; draft 5.2 m.

Type: Cargo ship. MMSI: 304255000.

Date/timePositionNaut miles runAvg speedWind from/ knotsBaromVisibWave heightAir tempDewpointWater temp
2014-Jul-30 17:10N 26°37' W 079°23'1314.9
2014-Jul-30 16:19N 26°25' W 079°24'1114.9
2014-Jul-30 15:33N 26°13' W 079°26'1514.8
2014-Jul-30 14:33N 25°58' W 079°27'1514.8
2014-Jul-30 13:33N 25°44' W 079°29'  
2014-Jul-27 05:33N 29°21' W 094°46'1212.5
2014-Jul-27 04:33N 29°31' W 094°53'1111.0
2014-Jul-27 03:33N 29°41' W 094°59'7 7.4
2014-Jul-27 02:33N 29°45' W 095°06'1 0.9
2014-Jul-27 01:31N 29°44' W 095°07'0 0.0
2014-Jul-27 00:28N 29°44' W 095°07'0 0.0
2014-Jul-26 23:31N 29°44' W 095°07'0 0.0
2014-Jul-26 22:31N 29°44' W 095°07'0 0.0
2014-Jul-26 21:28N 29°44' W 095°07'0 0.0
2014-Jul-26 20:28N 29°44' W 095°07'0 0.0
2014-Jul-26 19:31N 29°44' W 095°07'0 0.0
2014-Jul-26 18:31N 29°44' W 095°07'0 0.0
2014-Jul-26 17:31N 29°44' W 095°07'0 0.0
2014-Jul-26 16:31N 29°44' W 095°07'0 0.0
2014-Jul-26 15:31N 29°44' W 095°07'0 0.0
2014-Jul-26 14:31N 29°44' W 095°07'0 0.0
2014-Jul-26 13:31N 29°44' W 095°07'0 0.0
2014-Jul-26 12:31N 29°44' W 095°07'0 0.0
2014-Jul-26 11:28N 29°44' W 095°07'0 0.0
2014-Jul-26 10:31N 29°44' W 095°07'0 0.0
2014-Jul-26 09:28N 29°44' W 095°07'0 0.0
2014-Jul-26 08:31N 29°44' W 095°07'0 0.0
2014-Jul-26 07:31N 29°44' W 095°07'0 0.0
2014-Jul-26 06:31N 29°44' W 095°07'0 0.0
2014-Jul-26 05:31N 29°44' W 095°07'0 0.0
2014-Jul-26 04:32N 29°44' W 095°07'0 0.0
2014-Jul-26 03:32N 29°44' W 095°07'0 0.0
2014-Jul-26 02:32N 29°44' W 095°07'0 0.0
2014-Jul-26 01:32N 29°44' W 095°07'0 0.0
2014-Jul-26 00:32N 29°44' W 095°07'0 0.0
2014-Jul-25 23:32N 29°44' W 095°07'0 0.0
2014-Jul-25 22:32N 29°44' W 095°07'0 0.0
2014-Jul-25 21:32N 29°44' W 095°07'0 0.0
2014-Jul-25 20:32N 29°44' W 095°07'0 0.0
2014-Jul-25 19:26N 29°44' W 095°07'0 0.0
2014-Jul-25 18:32N 29°44' W 095°07'0 0.0
2014-Jul-25 17:32N 29°44' W 095°07'0 0.0
2014-Jul-25 16:32N 29°44' W 095°07'0 0.0
2014-Jul-25 15:32N 29°44' W 095°07'1 0.7
2014-Jul-25 14:34N 29°45' W 095°06'5 5.1
2014-Jul-25 13:34N 29°42' W 095°01'1212.3
2014-Jul-25 12:33N 29°32' W 094°54'1313.4
2014-Jul-25 11:33N 29°21' W 094°45'  

Dump ship's entire track history